Terminal Aerodrome Forecast
Issued by NWS

Home | Current Version | Previous Version | Text Only | Print | Product List | Glossary On
Versions: 1 2 3 4 5 6 7 8 9 10 11 12 13 14 15
000
FTUS45 KLKN 210500
TAFELY
TAF
KELY 210520Z 2106/2206 17008KT P6SM SCT250
     FM211900 19020G32KT P6SM SCT100 BKN200
     FM220100 18014G24KT P6SM SCT080=

USA.gov is the U.S. government's official web portal to all federal, state and local government web resources and services.